createdAt,value
2022-07-31T00:01:30.457Z,5.35
2022-07-31T00:04:03.666Z,5.30
2022-07-31T00:06:36.669Z,4.83
2022-07-31T00:09:45.428Z,5.62
2022-07-31T00:11:44.362Z,5.53
2022-07-31T00:14:18.666Z,4.30
2022-07-31T00:16:51.589Z,5.20
2022-07-31T00:19:24.528Z,5.15
2022-07-31T00:21:58.764Z,4.45
2022-07-31T00:24:31.874Z,4.53
2022-07-31T00:27:05.158Z,5.05
2022-07-31T00:29:39.321Z,5.20
2022-07-31T00:32:12.306Z,4.75
2022-07-31T00:34:45.147Z,5.03
2022-07-31T00:37:18.216Z,4.80
2022-07-31T00:39:51.358Z,4.28
2022-07-31T00:42:26.154Z,3.75
2022-07-31T00:44:59.445Z,3.77
2022-07-31T00:47:32.614Z,4.20
2022-07-31T00:50:08.839Z,4.53
2022-07-31T00:52:43.043Z,4.70
2022-07-31T00:57:47.658Z,5.35
2022-07-31T01:00:20.865Z,4.55
2022-07-31T01:02:53.919Z,5.10
2022-07-31T01:05:28.448Z,5.45
2022-07-31T01:08:01.345Z,5.12
2022-07-31T01:10:42.489Z,5.53
2022-07-31T01:13:25.584Z,4.72
2022-07-31T01:15:59.702Z,5.42
2022-07-31T01:21:09.427Z,4.53
2022-07-31T01:24:08.934Z,4.35
2022-07-31T01:27:00.346Z,4.55
2022-07-31T01:29:47.127Z,4.10
2022-07-31T01:32:29.353Z,4.28
2022-07-31T01:35:29.234Z,4.50
2022-07-31T01:38:07.005Z,4.40
2022-07-31T01:40:46.677Z,4.20
2022-07-31T01:43:26.626Z,4.40
2022-07-31T01:46:01.810Z,4.10
2022-07-31T01:48:36.692Z,4.00
2022-07-31T01:51:11.102Z,4.28
2022-07-31T01:53:47.940Z,4.17
2022-07-31T01:56:21.698Z,4.08
2022-07-31T01:58:55.128Z,4.33
2022-07-31T02:01:42.720Z,4.33
2022-07-31T02:04:16.727Z,3.58
2022-07-31T02:06:52.744Z,4.85
2022-07-31T02:09:27.161Z,4.30
2022-07-31T02:14:33.407Z,4.95
2022-07-31T02:20:00.366Z,5.05
2022-07-31T02:22:18.947Z,4.60
2022-07-31T02:24:53.418Z,4.65
2022-07-31T02:27:57.905Z,4.35
2022-07-31T02:30:04.621Z,4.85
2022-07-31T02:32:38.104Z,5.50
2022-07-31T02:35:11.766Z,4.47
2022-07-31T02:40:17.503Z,4.37
2022-07-31T02:42:51.144Z,4.83
2022-07-31T02:45:24.532Z,4.92
2022-07-31T02:47:58.872Z,4.30
2022-07-31T02:50:32.264Z,4.42
2022-07-31T02:53:06.027Z,5.17
2022-07-31T02:55:39.740Z,4.47
2022-07-31T02:58:12.631Z,4.27
2022-07-31T03:00:46.242Z,3.90
2022-07-31T03:03:20.004Z,3.95
2022-07-31T03:05:53.147Z,4.22
2022-07-31T03:08:26.708Z,3.77
2022-07-31T03:13:33.186Z,4.20
2022-07-31T03:16:08.039Z,3.75
2022-07-31T03:18:42.582Z,5.10
2022-07-31T03:21:16.253Z,5.97
2022-07-31T03:23:50.560Z,5.28
2022-07-31T03:26:25.134Z,4.40
2022-07-31T03:28:58.136Z,4.37
2022-07-31T03:31:31.416Z,4.40
2022-07-31T03:34:04.169Z,4.28
2022-07-31T03:36:37.296Z,4.20
2022-07-31T03:39:10.385Z,4.37
2022-07-31T03:41:45.026Z,3.83
2022-07-31T03:44:18.306Z,4.17
2022-07-31T03:46:51.429Z,5.05
2022-07-31T03:49:24.229Z,6.90
2022-07-31T03:51:57.276Z,6.70
2022-07-31T03:54:30.172Z,9.28
2022-07-31T03:57:14.422Z,4.58
2022-07-31T03:59:48.863Z,4.00
2022-07-31T04:02:22.400Z,3.87
2022-07-31T04:04:58.781Z,4.58
2022-07-31T04:07:31.720Z,3.55
2022-07-31T04:10:04.723Z,4.65
2022-07-31T04:12:38.004Z,4.10
2022-07-31T04:15:11.426Z,4.53
2022-07-31T04:17:45.073Z,4.87
2022-07-31T04:20:21.253Z,4.25
2022-07-31T04:22:55.831Z,3.98
2022-07-31T04:25:42.853Z,4.08
2022-07-31T04:28:37.116Z,3.98
2022-07-31T04:31:10.007Z,4.92
2022-07-31T04:33:48.840Z,4.78
2022-07-31T04:36:29.645Z,3.62
2022-07-31T04:38:53.943Z,3.72
2022-07-31T04:41:27.030Z,3.72
2022-07-31T04:44:00.362Z,4.15
2022-07-31T04:46:34.994Z,4.47
2022-07-31T04:49:07.996Z,4.00
2022-07-31T04:51:40.926Z,4.12
2022-07-31T04:54:14.345Z,3.63
2022-07-31T04:56:48.767Z,3.85
2022-07-31T04:59:23.913Z,3.80
2022-07-31T05:01:58.396Z,3.90
2022-07-31T05:04:31.554Z,3.65
2022-07-31T05:07:04.420Z,3.40
2022-07-31T05:09:38.513Z,4.12
2022-07-31T05:12:12.461Z,4.62
2022-07-31T05:14:45.870Z,3.65
2022-07-31T05:17:18.889Z,4.72
2022-07-31T05:19:59.514Z,3.90
2022-07-31T05:22:40.118Z,4.15
2022-07-31T05:25:20.576Z,3.27
2022-07-31T05:27:53.440Z,2.90
2022-07-31T05:30:30.226Z,2.92
2022-07-31T05:33:02.527Z,2.85
2022-07-31T05:35:35.411Z,2.70
2022-07-31T05:38:11.715Z,2.52
2022-07-31T05:40:50.556Z,2.90
2022-07-31T05:43:40.724Z,2.87
2022-07-31T05:46:26.688Z,2.62
2022-07-31T05:48:59.783Z,2.35
2022-07-31T05:51:33.077Z,2.85
2022-07-31T05:54:06.088Z,2.47
2022-07-31T05:56:56.970Z,2.30
2022-07-31T05:59:47.385Z,2.45
2022-07-31T06:02:20.501Z,2.77
2022-07-31T06:04:58.467Z,1.98
2022-07-31T06:07:33.786Z,2.60
2022-07-31T06:10:09.092Z,2.33
2022-07-31T06:12:42.109Z,2.42
2022-07-31T06:15:15.259Z,2.30
2022-07-31T06:17:48.809Z,2.02
2022-07-31T06:20:23.241Z,2.30
2022-07-31T06:22:56.502Z,2.58
2022-07-31T06:25:34.994Z,1.92
2022-07-31T06:28:07.023Z,2.00
2022-07-31T06:30:41.868Z,2.02
2022-07-31T06:33:16.605Z,2.17
2022-07-31T06:35:49.608Z,2.50
2022-07-31T06:38:31.141Z,2.10
2022-07-31T06:41:41.890Z,1.93
2022-07-31T06:44:34.122Z,2.22
2022-07-31T06:47:26.868Z,2.30
2022-07-31T06:50:02.300Z,2.05
2022-07-31T06:52:36.904Z,2.30
2022-07-31T06:55:11.292Z,2.65
2022-07-31T06:57:44.736Z,2.08
2022-07-31T07:00:20.573Z,2.08
2022-07-31T07:02:53.157Z,1.67
2022-07-31T07:05:26.767Z,2.10
2022-07-31T07:08:00.230Z,1.80
2022-07-31T07:10:33.783Z,2.10
2022-07-31T07:13:09.223Z,1.85
2022-07-31T07:15:42.271Z,1.60
2022-07-31T07:18:17.304Z,1.70
2022-07-31T07:20:55.636Z,1.85
2022-07-31T07:23:30.045Z,1.90
2022-07-31T07:26:05.391Z,2.02
2022-07-31T07:28:38.421Z,5.28
2022-07-31T07:31:12.186Z,2.17
2022-07-31T07:33:45.805Z,1.90
2022-07-31T07:36:23.823Z,2.10
2022-07-31T07:38:56.185Z,2.08
2022-07-31T07:41:29.699Z,2.08
2022-07-31T07:44:04.177Z,2.55
2022-07-31T07:46:37.666Z,1.97
2022-07-31T07:49:11.513Z,2.02
2022-07-31T07:51:59.027Z,2.20
2022-07-31T07:54:37.102Z,2.30
2022-07-31T07:57:27.638Z,2.40
2022-07-31T08:00:16.422Z,2.30
2022-07-31T08:03:46.648Z,3.17
2022-07-31T08:05:25.421Z,2.40
2022-07-31T08:07:58.173Z,2.70
2022-07-31T08:10:43.461Z,2.80
2022-07-31T08:13:17.984Z,3.33
2022-07-31T08:16:08.805Z,4.45
2022-07-31T08:18:50.261Z,2.65
2022-07-31T08:23:55.379Z,2.60
2022-07-31T08:26:31.000Z,2.60
2022-07-31T08:29:07.654Z,2.22
2022-07-31T08:31:39.261Z,2.20
2022-07-31T08:34:32.888Z,1.72
2022-07-31T08:37:51.662Z,2.12
2022-07-31T08:39:42.583Z,2.85
2022-07-31T08:42:15.971Z,2.60
2022-07-31T08:44:49.317Z,2.25
2022-07-31T08:47:24.875Z,2.70
2022-07-31T08:49:59.372Z,2.50
2022-07-31T08:52:33.477Z,3.17
2022-07-31T08:55:24.684Z,2.17
2022-07-31T08:57:50.141Z,2.20
2022-07-31T09:00:23.172Z,2.67
2022-07-31T09:02:56.331Z,4.60
2022-07-31T09:05:41.965Z,3.15
2022-07-31T09:08:15.306Z,2.70
2022-07-31T09:10:50.536Z,2.60
2022-07-31T09:13:24.479Z,3.15
2022-07-31T09:16:01.790Z,2.42
2022-07-31T09:18:35.506Z,2.42
2022-07-31T09:21:10.613Z,2.45
2022-07-31T09:23:48.209Z,2.75
2022-07-31T09:26:21.496Z,3.40
2022-07-31T09:28:54.587Z,3.65
2022-07-31T09:31:34.764Z,6.03
2022-07-31T09:34:30.946Z,4.20
2022-07-31T09:37:20.638Z,6.80
2022-07-31T09:39:57.474Z,8.55
2022-07-31T09:42:55.574Z,8.30
2022-07-31T09:45:26.357Z,8.45
2022-07-31T09:48:12.548Z,8.18
2022-07-31T09:51:05.507Z,6.95
2022-07-31T09:53:47.788Z,6.62
2022-07-31T09:56:36.155Z,5.40
2022-07-31T09:59:11.787Z,4.75
2022-07-31T10:01:45.465Z,4.22
2022-07-31T10:04:21.230Z,5.12
2022-07-31T10:06:54.907Z,5.30
2022-07-31T10:09:29.941Z,4.72
2022-07-31T10:12:16.549Z,4.90
2022-07-31T10:14:52.799Z,4.42
2022-07-31T10:17:35.010Z,7.45
2022-07-31T10:20:10.933Z,7.20
2022-07-31T10:22:52.043Z,7.30
2022-07-31T10:25:31.387Z,6.20
2022-07-31T10:28:04.498Z,5.80
2022-07-31T10:30:39.398Z,8.90
2022-07-31T10:33:40.896Z,7.85
2022-07-31T10:36:03.111Z,6.87
2022-07-31T10:39:18.648Z,6.62
2022-07-31T10:42:35.956Z,8.75
2022-07-31T10:45:14.255Z,10.75
2022-07-31T10:48:01.448Z,7.95
2022-07-31T10:51:07.630Z,7.30
2022-07-31T10:54:03.962Z,5.70
2022-07-31T10:56:56.275Z,6.78
2022-07-31T10:59:44.978Z,8.35
2022-07-31T11:02:37.585Z,7.97
2022-07-31T11:05:29.165Z,7.50
2022-07-31T11:08:15.749Z,7.53
2022-07-31T11:11:03.530Z,6.60
2022-07-31T11:13:56.233Z,6.42
2022-07-31T11:16:34.348Z,6.78
2022-07-31T11:19:10.085Z,6.12
2022-07-31T11:21:43.509Z,8.65
2022-07-31T11:24:27.203Z,10.70
2022-07-31T11:27:00.672Z,9.65
2022-07-31T11:32:15.961Z,8.93
2022-07-31T11:34:55.186Z,8.73
2022-07-31T11:37:46.647Z,9.03
2022-07-31T11:40:09.271Z,10.23
2022-07-31T11:42:52.538Z,9.98
2022-07-31T11:45:21.258Z,9.93
2022-07-31T11:48:09.529Z,9.30
2022-07-31T11:50:32.014Z,8.23
2022-07-31T11:53:07.377Z,9.58
2022-07-31T11:55:51.154Z,7.53
2022-07-31T11:58:27.368Z,6.85
2022-07-31T12:01:05.727Z,6.97
2022-07-31T12:03:41.268Z,7.17
2022-07-31T12:06:16.429Z,7.95
2022-07-31T12:08:52.108Z,8.75
2022-07-31T12:11:26.071Z,8.08
2022-07-31T12:13:59.698Z,8.23
2022-07-31T12:19:15.199Z,10.32
2022-07-31T12:21:48.066Z,14.33
2022-07-31T12:24:21.337Z,13.72
2022-07-31T12:27:03.262Z,12.40
2022-07-31T12:29:39.523Z,13.30
2022-07-31T12:32:13.209Z,10.98
2022-07-31T12:34:46.108Z,10.53
2022-07-31T12:37:22.571Z,14.58
2022-07-31T12:40:00.768Z,13.13
2022-07-31T12:42:41.302Z,11.35
2022-07-31T12:45:20.094Z,10.70
2022-07-31T12:47:45.902Z,9.33
2022-07-31T12:50:20.966Z,13.18
2022-07-31T12:52:54.908Z,9.40
2022-07-31T12:55:29.729Z,7.72
2022-07-31T12:58:02.703Z,10.70
2022-07-31T13:00:40.011Z,8.35
2022-07-31T13:03:11.121Z,7.83
2022-07-31T13:05:44.194Z,7.17
2022-07-31T13:08:17.051Z,6.67
2022-07-31T13:10:49.962Z,10.23
2022-07-31T13:13:23.992Z,12.95
2022-07-31T13:15:56.870Z,9.90
2022-07-31T13:18:30.382Z,7.27
2022-07-31T13:21:03.666Z,10.40
2022-07-31T13:23:36.820Z,18.05
2022-07-31T13:26:10.097Z,7.35
2022-07-31T13:28:42.900Z,11.35
2022-07-31T13:31:16.087Z,7.23
2022-07-31T13:33:49.216Z,7.30
2022-07-31T13:36:22.172Z,6.95
2022-07-31T13:38:55.098Z,6.80
2022-07-31T13:41:35.895Z,6.37
2022-07-31T13:44:10.522Z,6.03
2022-07-31T13:46:43.675Z,6.87
2022-07-31T13:49:16.585Z,8.03
2022-07-31T13:51:50.416Z,7.13
2022-07-31T13:54:23.652Z,11.33
2022-07-31T13:56:57.235Z,15.50
2022-07-31T13:59:29.915Z,11.33
2022-07-31T14:02:05.734Z,8.25
2022-07-31T14:04:38.794Z,6.72
2022-07-31T14:07:13.006Z,6.37
2022-07-31T14:12:19.608Z,6.70
2022-07-31T14:14:52.723Z,6.10
2022-07-31T14:17:25.975Z,6.55
2022-07-31T14:19:59.597Z,7.12
2022-07-31T14:22:32.941Z,7.15
2022-07-31T14:25:06.513Z,6.75
2022-07-31T14:30:13.374Z,7.50
2022-07-31T14:32:48.699Z,9.88
2022-07-31T14:35:21.890Z,8.58
2022-07-31T14:37:54.776Z,7.27
2022-07-31T14:40:29.708Z,9.98
2022-07-31T14:43:02.492Z,7.33
2022-07-31T14:45:38.725Z,6.78
2022-07-31T14:48:11.200Z,7.40
2022-07-31T14:50:47.536Z,6.92
2022-07-31T14:53:20.294Z,7.08
2022-07-31T14:55:53.457Z,6.77
2022-07-31T14:58:27.988Z,6.28
2022-07-31T15:01:01.016Z,6.20
2022-07-31T15:03:34.090Z,18.50
2022-07-31T15:06:45.612Z,9.95
2022-07-31T15:08:42.016Z,8.53
2022-07-31T15:11:14.787Z,8.45
2022-07-31T15:13:48.898Z,7.70
2022-07-31T15:16:22.043Z,6.50
2022-07-31T15:18:56.808Z,5.40
2022-07-31T15:21:29.923Z,5.28
2022-07-31T15:24:03.067Z,4.92
2022-07-31T15:26:35.984Z,5.83
2022-07-31T15:29:09.010Z,4.85
2022-07-31T15:31:42.211Z,4.00
2022-07-31T15:34:15.266Z,3.60
2022-07-31T15:36:48.627Z,4.33
2022-07-31T15:39:21.994Z,3.47
2022-07-31T15:41:55.035Z,3.98
2022-07-31T15:44:28.003Z,4.03
2022-07-31T15:47:01.001Z,4.03
2022-07-31T15:49:43.225Z,3.75
2022-07-31T15:52:19.218Z,4.47
2022-07-31T15:54:45.869Z,3.85
2022-07-31T15:57:18.776Z,4.37
2022-07-31T15:59:54.563Z,4.97
2022-07-31T16:02:28.304Z,12.35
2022-07-31T16:08:31.559Z,4.30
2022-07-31T16:10:16.368Z,3.85
2022-07-31T16:12:47.786Z,4.03
2022-07-31T16:15:20.933Z,3.80
2022-07-31T16:17:54.318Z,3.80
2022-07-31T16:20:27.413Z,3.72
2022-07-31T16:23:02.255Z,4.35
2022-07-31T16:25:35.459Z,5.83
2022-07-31T16:28:08.961Z,5.20
2022-07-31T16:30:42.789Z,4.73
2022-07-31T16:33:15.712Z,4.87
2022-07-31T16:35:48.963Z,4.97
2022-07-31T16:38:23.123Z,4.62
2022-07-31T16:40:55.898Z,4.62
2022-07-31T16:43:50.736Z,4.62
2022-07-31T16:46:03.195Z,4.40
2022-07-31T16:48:36.625Z,4.22
2022-07-31T16:51:09.565Z,4.20
2022-07-31T16:54:13.416Z,5.15
2022-07-31T16:56:18.367Z,4.00
2022-07-31T16:58:54.302Z,4.40
2022-07-31T17:01:54.205Z,4.65
2022-07-31T17:04:03.882Z,4.10
2022-07-31T17:06:38.566Z,4.12
2022-07-31T17:09:15.891Z,4.85
2022-07-31T17:11:53.178Z,5.12
2022-07-31T17:14:28.061Z,6.53
2022-07-31T17:17:00.954Z,4.65
2022-07-31T17:19:41.259Z,4.60
2022-07-31T17:22:11.304Z,4.40
2022-07-31T17:24:44.680Z,4.50
2022-07-31T17:27:17.561Z,3.70
2022-07-31T17:29:51.692Z,4.40
2022-07-31T17:34:56.553Z,4.08
2022-07-31T17:37:29.613Z,4.20
2022-07-31T17:40:02.862Z,4.50
2022-07-31T17:42:35.632Z,3.92
2022-07-31T17:45:10.003Z,3.65
2022-07-31T17:47:42.958Z,4.45
2022-07-31T17:50:15.764Z,4.85
2022-07-31T17:52:48.560Z,4.35
2022-07-31T17:55:21.650Z,4.40
2022-07-31T17:57:54.446Z,4.80
2022-07-31T18:00:31.069Z,4.90
2022-07-31T18:03:04.688Z,4.25
2022-07-31T18:05:38.816Z,4.47
2022-07-31T18:08:11.727Z,4.12
2022-07-31T18:10:54.240Z,4.37
2022-07-31T18:13:19.258Z,3.92
2022-07-31T18:15:51.909Z,4.45
2022-07-31T18:18:24.622Z,3.98
2022-07-31T18:20:57.418Z,3.75
2022-07-31T18:23:32.090Z,4.08
2022-07-31T18:26:05.420Z,3.92
2022-07-31T18:28:38.793Z,4.03
2022-07-31T18:31:31.956Z,4.12
2022-07-31T18:33:46.466Z,4.60
2022-07-31T18:36:20.261Z,3.90
2022-07-31T18:38:53.525Z,3.95
2022-07-31T18:41:26.493Z,4.40
2022-07-31T18:43:59.546Z,4.03
2022-07-31T18:46:32.524Z,3.70
2022-07-31T18:49:07.553Z,4.25
2022-07-31T18:51:43.649Z,3.33
2022-07-31T18:54:17.721Z,3.55
2022-07-31T18:56:50.734Z,3.62
2022-07-31T18:59:25.479Z,3.75
2022-07-31T19:01:59.572Z,3.87
2022-07-31T19:04:32.559Z,3.67
2022-07-31T19:07:05.567Z,3.95
2022-07-31T19:09:38.487Z,3.55
2022-07-31T19:12:12.143Z,4.58
2022-07-31T19:14:45.410Z,3.72
2022-07-31T19:17:21.391Z,4.40
2022-07-31T19:19:55.005Z,3.87
2022-07-31T19:22:27.374Z,3.40
2022-07-31T19:25:00.225Z,3.72
2022-07-31T19:27:46.772Z,3.60
2022-07-31T19:30:10.317Z,4.12
2022-07-31T19:32:45.030Z,4.25
2022-07-31T19:35:18.210Z,4.17
2022-07-31T19:38:02.224Z,4.42
2022-07-31T19:40:35.578Z,4.17
2022-07-31T19:43:08.298Z,4.20
2022-07-31T19:46:00.367Z,3.70
2022-07-31T19:48:15.990Z,4.15
2022-07-31T19:50:50.489Z,4.77
2022-07-31T19:53:24.987Z,3.72
2022-07-31T19:55:57.762Z,4.47
2022-07-31T19:58:32.359Z,4.20
2022-07-31T20:01:06.658Z,4.58
2022-07-31T20:03:41.270Z,4.08
2022-07-31T20:06:14.391Z,3.98
2022-07-31T20:08:47.513Z,3.65
2022-07-31T20:11:20.527Z,4.10
2022-07-31T20:13:53.616Z,4.00
2022-07-31T20:16:27.643Z,4.40
2022-07-31T20:21:34.946Z,3.80
2022-07-31T20:24:09.068Z,4.37
2022-07-31T20:26:41.935Z,3.80
2022-07-31T20:29:14.853Z,4.28
2022-07-31T20:31:50.339Z,3.90
2022-07-31T20:36:58.400Z,4.22
2022-07-31T20:39:33.999Z,3.98
2022-07-31T20:42:07.222Z,4.05
2022-07-31T20:44:41.921Z,4.33
2022-07-31T20:47:15.561Z,3.67
2022-07-31T20:49:48.546Z,4.25
2022-07-31T20:52:21.482Z,3.90
2022-07-31T20:54:54.333Z,4.08
2022-07-31T20:57:27.163Z,3.90
2022-07-31T21:00:00.541Z,3.45
2022-07-31T21:02:33.629Z,3.85
2022-07-31T21:05:07.439Z,3.65
2022-07-31T21:07:41.599Z,3.70
2022-07-31T21:10:14.662Z,3.50
2022-07-31T21:12:47.521Z,3.72
2022-07-31T21:15:42.251Z,4.05
2022-07-31T21:17:55.473Z,3.90
2022-07-31T21:20:50.058Z,4.35
2022-07-31T21:23:04.324Z,5.37
2022-07-31T21:25:38.459Z,4.55
2022-07-31T21:28:13.619Z,4.97
2022-07-31T21:30:46.715Z,4.08
2022-07-31T21:33:20.132Z,4.15
2022-07-31T21:35:55.118Z,3.67
2022-07-31T21:38:28.027Z,4.37
2022-07-31T21:41:01.478Z,4.30
2022-07-31T21:43:41.234Z,4.17
2022-07-31T21:46:10.369Z,4.10
2022-07-31T21:48:46.688Z,3.67
2022-07-31T21:51:20.205Z,4.05
2022-07-31T21:53:53.559Z,4.47
2022-07-31T21:56:26.525Z,4.47
2022-07-31T21:58:59.457Z,4.33
2022-07-31T22:01:32.683Z,4.08
2022-07-31T22:04:05.528Z,4.40
2022-07-31T22:06:57.274Z,4.95
2022-07-31T22:09:30.301Z,5.85
2022-07-31T22:12:03.402Z,8.07
2022-07-31T22:14:36.436Z,8.93
2022-07-31T22:17:09.274Z,11.05
2022-07-31T22:19:47.194Z,10.53
2022-07-31T22:22:19.953Z,11.95
2022-07-31T22:24:53.399Z,12.37
2022-07-31T22:27:44.640Z,11.75
2022-07-31T22:30:19.496Z,11.80
2022-07-31T22:35:26.241Z,9.30
2022-07-31T22:37:59.117Z,9.23
2022-07-31T22:40:32.007Z,8.68
2022-07-31T22:44:09.506Z,7.58
2022-07-31T22:45:41.412Z,7.67
2022-07-31T22:48:16.207Z,8.33
2022-07-31T22:50:50.308Z,7.90
2022-07-31T22:53:24.203Z,7.58
2022-07-31T22:55:57.016Z,8.05
2022-07-31T22:58:29.901Z,8.28
2022-07-31T23:01:02.874Z,7.85
2022-07-31T23:03:35.687Z,8.10
2022-07-31T23:06:31.380Z,8.53
2022-07-31T23:08:54.567Z,8.30
2022-07-31T23:11:28.070Z,8.45
2022-07-31T23:14:01.116Z,8.25
2022-07-31T23:16:34.053Z,9.40
2022-07-31T23:19:06.903Z,10.10
2022-07-31T23:21:40.209Z,12.47
2022-07-31T23:24:13.515Z,13.53
2022-07-31T23:26:46.346Z,14.15
2022-07-31T23:29:19.109Z,15.35
2022-07-31T23:31:52.386Z,15.53
2022-07-31T23:34:25.205Z,15.68
2022-07-31T23:36:58.576Z,15.78
2022-07-31T23:39:33.380Z,14.75
2022-07-31T23:42:24.363Z,15.58
2022-07-31T23:44:57.413Z,14.87
2022-07-31T23:47:45.030Z,14.13
2022-07-31T23:50:07.637Z,14.30
2022-07-31T23:52:41.218Z,15.53
2022-07-31T23:55:14.513Z,14.35
2022-07-31T23:57:47.248Z,13.63
